| time (UTC) | temp C | wind direction | speed KPH | gust KPH | rain 1hr cm | rain 24hr cm | rain mn cm | humidity % | barometer mb |
| 20260503200814 | 13 | 57 | 16.1 | 27.4 | 0.00 | 0.08 | 0.00 | 65 | 1016.6 |
| 20260503200743 | 13 | 58 | 14.5 | 24.1 | 0.00 | 0.08 | 0.00 | 61 | 1016.9 |
| 20260503194814 | 13 | 92 | 14.5 | 24.1 | 0.00 | 0.08 | 0.00 | 65 | 1017.1 |
| 20260503193814 | 15 | 32 | 14.5 | 25.7 | 0.00 | 0.08 | 0.00 | 56 | 1017.1 |
| 20260503192815 | 16 | 11 | 12.9 | 32.2 | 0.00 | 0.08 | 0.00 | 44 | 1017.2 |
| 20260503191814 | 16 | 19 | 9.7 | 32.2 | 0.00 | 0.08 | 0.00 | 45 | 1017.3 |
| 20260503191741 | 16 | 301 | 11.3 | 27.4 | 0.00 | 0.08 | 0.00 | 43 | 1017.3 |
| 20260503185815 | 16 | 306 | 11.3 | 27.4 | 0.00 | 0.08 | 0.00 | 45 | 1017.3 |
| 20260503184815 | 16 | 65 | 11.3 | 30.6 | 0.00 | 0.08 | 0.00 | 46 | 1017.5 |
| 20260503183815 | 16 | 345 | 12.9 | 25.7 | 0.00 | 0.08 | 0.00 | 43 | 1017.6 |
| 20260503182811 | 16 | 302 | 12.9 | 29.0 | 0.00 | 0.08 | 0.00 | 44 | 1017.8 |
| 20260503181810 | 16 | 328 | 11.3 | 22.5 | 0.00 | 0.08 | 0.00 | 44 | 1017.7 |
| 20260503180810 | 16 | 5 | 11.3 | 25.7 | 0.00 | 0.08 | 0.00 | 44 | 1017.8 |
| 20260503175810 | 16 | 325 | 11.3 | 22.5 | 0.00 | 0.08 | 0.00 | 46 | 1017.7 |
| 20260503174811 | 16 | 296 | 12.9 | 25.7 | 0.00 | 0.08 | 0.00 | 46 | 1017.8 |
| 20260503174739 | 15 | 327 | 12.9 | 24.1 | 0.00 | 0.10 | 0.00 | 47 | 1017.8 |
| 20260503172809 | 15 | 342 | 9.7 | 25.7 | 0.00 | 0.10 | 0.00 | 48 | 1017.9 |
| 20260503171811 | 15 | 17 | 11.3 | 25.7 | 0.00 | 0.10 | 0.00 | 47 | 1017.9 |
| 20260503170807 | 15 | 26 | 12.9 | 22.5 | 0.00 | 0.10 | 0.00 | 47 | 1017.9 |
| 20260503170252 | 15 | 12 | 11.3 | 25.7 | 0.00 | 0.10 | 0.00 | 46 | 1017.9 |
| 20260503130758 | 13 | 40 | 24.1 | 35.4 | 0.00 | 0.10 | 0.00 | 67 | 1017.1 |
| 20260503110759 | 11 | 317 | 8.0 | 17.7 | 0.00 | 0.18 | 0.00 | 71 | 1015.5 |
| 20260503081232 | 12 | 355 | 8.0 | 17.7 | 0.00 | 0.48 | 0.00 | 69 | 1013.2 |
| 20260503071745 | 12 | 321 | 8.0 | 17.7 | 0.00 | 0.48 | 0.00 | 73 | 1012.5 |
| 20260503070743 | 12 | 331 | 8.0 | 17.7 | 0.00 | 0.48 | 0.00 | 74 | 1012.3 |
| 20260503054742 | 12 | 17 | 8.0 | 27.4 | 0.00 | 0.48 | 0.00 | 72 | 1011.7 |
| 20260503053742 | 13 | 319 | 17.7 | 27.4 | 0.00 | 0.48 | 0.00 | 73 | 1011.6 |
| 20260503052739 | 13 | 0 | 19.3 | 27.4 | 0.00 | 0.48 | 0.00 | 74 | 1011.5 |
| 20260503051741 | 13 | 9 | 20.9 | 27.4 | 0.00 | 0.48 | 0.00 | 73 | 1011.8 |
| 20260503050740 | 13 | 15 | 20.9 | 27.4 | 0.00 | 0.48 | 0.00 | 73 | 1011.7 |
| 20260503045737 | 13 | 11 | 20.9 | 32.2 | 0.00 | 0.48 | 0.00 | 73 | 1011.8 |
| 20260503044739 | 13 | 13 | 20.9 | 29.0 | 0.00 | 0.48 | 0.00 | 74 | 1012.0 |
| 20260503043737 | 13 | 25 | 22.5 | 30.6 | 0.00 | 0.48 | 0.00 | 73 | 1012.1 |
| 20260503042738 | 13 | 46 | 20.9 | 30.6 | 0.00 | 0.48 | 0.00 | 72 | 1012.0 |
| 20260503041737 | 13 | 18 | 22.5 | 32.2 | 0.00 | 0.48 | 0.00 | 71 | 1011.9 |
| 20260503040739 | 13 | 44 | 24.1 | 33.8 | 0.00 | 0.48 | 0.00 | 70 | 1011.9 |
| 20260503040225 | 13 | 27 | 24.1 | 32.2 | 0.00 | 0.48 | 0.48 | 71 | 1011.8 |
| 20260503034737 | 13 | 9 | 25.7 | 35.4 | 0.00 | 0.48 | 0.48 | 69 | 1011.7 |
| 20260503033736 | 13 | 32 | 25.7 | 37.0 | 0.00 | 0.48 | 0.48 | 70 | 1011.7 |
| 20260503032737 | 12 | 33 | 25.7 | 37.0 | 0.00 | 0.48 | 0.48 | 73 | 1011.8 |
| 20260503031735 | 12 | 13 | 29.0 | 41.8 | 0.00 | 0.48 | 0.48 | 75 | 1011.7 |
| 20260503030734 | 13 | 21 | 24.1 | 33.8 | 0.03 | 0.48 | 0.48 | 74 | 1011.7 |
| 20260503030222 | 13 | 14 | 25.7 | 35.4 | 0.03 | 0.48 | 0.48 | 75 | 1011.6 |
| 20260503024734 | 13 | 43 | 24.1 | 32.2 | 0.03 | 0.48 | 0.48 | 76 | 1011.6 |
| 20260503023735 | 13 | 42 | 25.7 | 33.8 | 0.03 | 0.48 | 0.48 | 78 | 1011.9 |
| 20260503022735 | 13 | 355 | 24.1 | 33.8 | 0.03 | 0.48 | 0.48 | 80 | 1011.8 |
| 20260503021735 | 13 | 11 | 25.7 | 35.4 | 0.03 | 0.48 | 0.48 | 80 | 1011.7 |
| 20260503020732 | 13 | 12 | 24.1 | 35.4 | 0.00 | 0.46 | 0.46 | 81 | 1011.6 |
| 20260503015733 | 13 | 33 | 24.1 | 33.8 | 0.00 | 0.46 | 0.46 | 81 | 1011.6 |
| 20260503015221 | 12 | 27 | 24.1 | 33.8 | 0.00 | 0.46 | 0.46 | 82 | 1011.4 |
| 20260503014219 | 12 | 44 | 22.5 | 32.2 | 0.00 | 0.46 | 0.46 | 82 | 1011.6 |
| 20260503012732 | 12 | 17 | 20.9 | 33.8 | 0.00 | 0.46 | 0.46 | 82 | 1011.9 |
| 20260503011732 | 12 | 14 | 20.9 | 32.2 | 0.00 | 0.46 | 0.46 | 82 | 1011.7 |
| 20260503010733 | 12 | 22 | 22.5 | 32.2 | 0.00 | 0.46 | 0.46 | 81 | 1011.4 |
| 20260503005733 | 12 | 13 | 22.5 | 30.6 | 0.00 | 0.46 | 0.46 | 81 | 1011.2 |
| 20260503005208 | 12 | 19 | 22.5 | 29.0 | 0.00 | 0.46 | 0.46 | 80 | 1011.1 |
| 20260503004219 | 12 | 17 | 19.3 | 27.4 | 0.00 | 0.46 | 0.46 | 81 | 1011.3 |
| 20260503003216 | 12 | 0 | 20.9 | 29.0 | 0.00 | 0.46 | 0.46 | 81 | 1010.9 |
| 20260503001733 | 12 | 12 | 19.3 | 27.4 | 0.00 | 0.46 | 0.46 | 81 | 1011.3 |
| 20260503000735 | 12 | 15 | 20.9 | 29.0 | 0.00 | 0.46 | 0.46 | 81 | 1011.2 |
| 20260502235735 | 12 | 30 | 22.5 | 32.2 | 0.00 | 0.46 | 0.46 | 81 | 1010.9 |
| 20260502234733 | 12 | 0 | 22.5 | 32.2 | 0.00 | 0.46 | 0.46 | 81 | 1010.7 |
| 20260502233732 | 12 | 0 | 25.7 | 35.4 | 0.00 | 0.46 | 0.46 | 81 | 1010.7 |
| 20260502233212 | 12 | 36 | 25.7 | 35.4 | 0.00 | 0.46 | 0.46 | 81 | 1010.6 |
| 20260502231733 | 12 | 49 | 27.4 | 38.6 | 0.00 | 0.46 | 0.46 | 82 | 1010.2 |
| 20260502230731 | 11 | 13 | 30.6 | 38.6 | 0.00 | 0.46 | 0.46 | 83 | 1010.1 |
| 20260502230657 | 11 | 43 | 29.0 | 40.2 | 0.00 | 0.46 | 0.46 | 85 | 1010.1 |
| 20260502224731 | 11 | 37 | 30.6 | 38.6 | 0.00 | 0.46 | 0.46 | 85 | 1010.4 |
| 20260502223730 | 11 | 17 | 30.6 | 38.6 | 0.00 | 0.46 | 0.46 | 85 | 1010.3 |
| 20260502222731 | 11 | 9 | 29.0 | 38.6 | 0.00 | 0.46 | 0.46 | 86 | 1010.4 |
| 20260502221730 | 11 | 0 | 29.0 | 38.6 | 0.03 | 0.46 | 0.46 | 86 | 1010.7 |
| 20260502220731 | 11 | 31 | 27.4 | 38.6 | 0.03 | 0.46 | 0.46 | 87 | 1010.4 |
| 20260502215731 | 11 | 25 | 29.0 | 38.6 | 0.05 | 0.46 | 0.46 | 87 | 1010.7 |
| 20260502214730 | 11 | 40 | 27.4 | 37.0 | 0.05 | 0.46 | 0.46 | 87 | 1010.4 |
| 20260502213730 | 11 | 0 | 29.0 | 38.6 | 0.05 | 0.46 | 0.46 | 87 | 1010.2 |
| 20260502212731 | 11 | 17 | 29.0 | 38.6 | 0.05 | 0.46 | 0.46 | 87 | 1010.4 |
| 20260502211726 | 11 | 22 | 27.4 | 37.0 | 0.03 | 0.43 | 0.43 | 87 | 1010.4 |
| 20260502210727 | 11 | 55 | 29.0 | 40.2 | 0.03 | 0.43 | 0.43 | 87 | 1010.0 |
| 20260502205725 | 11 | 49 | 25.7 | 35.4 | 0.00 | 0.41 | 0.41 | 86 | 1010.5 |
| 20260502205127 | 11 | 0 | 27.4 | 38.6 | 0.00 | 0.41 | 0.41 | 87 | 1010.1 |
| 20260502204911 | 11 | 0 | 25.7 | 38.6 | 0.00 | 0.41 | 0.41 | 87 | 1010.4 |
| 20260502202726 | 11 | 43 | 29.0 | 37.0 | 0.00 | 0.41 | 0.41 | 87 | 1010.4 |
| 20260502201726 | 11 | 0 | 29.0 | 40.2 | 0.00 | 0.41 | 0.41 | 88 | 1010.1 |